createdAt,value
2023-05-16T00:00:48.853Z,100.00
2023-05-16T00:03:15.558Z,100.00
2023-05-16T00:05:42.249Z,100.00
2023-05-16T00:08:08.696Z,100.00
2023-05-16T00:10:35.629Z,100.00
2023-05-16T00:13:02.233Z,100.00
2023-05-16T00:15:30.092Z,100.00
2023-05-16T00:17:59.824Z,100.00
2023-05-16T00:20:28.278Z,100.00
2023-05-16T00:22:55.506Z,100.00
2023-05-16T00:25:22.051Z,100.00
2023-05-16T00:27:48.579Z,100.00
2023-05-16T00:30:15.104Z,100.00
2023-05-16T00:32:41.564Z,100.00
2023-05-16T00:35:10.612Z,100.00
2023-05-16T00:37:38.609Z,100.00
2023-05-16T00:40:05.802Z,100.00
2023-05-16T00:42:32.637Z,100.00
2023-05-16T00:44:59.681Z,100.00
2023-05-16T00:47:26.285Z,100.00
2023-05-16T00:49:52.960Z,100.00
2023-05-16T00:52:19.807Z,100.00
2023-05-16T00:54:46.346Z,100.00
2023-05-16T00:57:12.840Z,100.00
2023-05-16T00:59:40.198Z,100.00
2023-05-16T01:02:06.718Z,100.00
2023-05-16T01:04:33.639Z,100.00
2023-05-16T01:07:01.447Z,100.00
2023-05-16T01:09:28.297Z,100.00
2023-05-16T01:12:32.628Z,100.00
2023-05-16T01:15:09.459Z,100.00
2023-05-16T01:18:22.575Z,100.00
2023-05-16T01:21:09.382Z,100.00
2023-05-16T01:24:04.745Z,100.00
2023-05-16T01:26:32.620Z,100.00
2023-05-16T01:28:59.796Z,100.00
2023-05-16T01:31:26.309Z,100.00
2023-05-16T01:33:52.815Z,100.00
2023-05-16T01:36:25.928Z,100.00
2023-05-16T01:39:22.750Z,100.00
2023-05-16T01:42:06.176Z,100.00
2023-05-16T01:44:44.565Z,100.00
2023-05-16T01:47:14.490Z,100.00
2023-05-16T01:49:54.321Z,100.00
2023-05-16T01:52:38.615Z,100.00
2023-05-16T01:55:12.258Z,100.00
2023-05-16T01:57:40.475Z,100.00
2023-05-16T02:00:08.621Z,100.00
2023-05-16T02:02:35.087Z,100.00
2023-05-16T02:05:01.576Z,100.00
2023-05-16T02:07:28.156Z,100.00
2023-05-16T02:09:54.597Z,100.00
2023-05-16T02:12:21.042Z,100.00
2023-05-16T02:14:47.497Z,100.00
2023-05-16T02:17:13.953Z,100.00
2023-05-16T02:19:40.496Z,100.00
2023-05-16T02:22:07.093Z,100.00
2023-05-16T02:24:33.993Z,100.00
2023-05-16T02:27:00.882Z,100.00
2023-05-16T02:29:27.380Z,100.00
2023-05-16T02:31:54.210Z,100.00
2023-05-16T02:34:20.642Z,100.00
2023-05-16T02:36:47.118Z,100.00
2023-05-16T02:39:13.612Z,100.00
2023-05-16T02:41:40.036Z,100.00
2023-05-16T02:44:06.489Z,100.00
2023-05-16T02:46:34.763Z,100.00
2023-05-16T02:49:01.859Z,100.00
2023-05-16T02:51:28.946Z,100.00
2023-05-16T02:54:01.048Z,100.00
2023-05-16T02:56:28.124Z,100.00
2023-05-16T02:58:56.165Z,100.00
2023-05-16T03:01:22.831Z,100.00
2023-05-16T03:03:49.583Z,100.00
2023-05-16T03:06:16.230Z,100.00
2023-05-16T03:08:42.730Z,100.00
2023-05-16T03:11:09.257Z,100.00
2023-05-16T03:13:35.713Z,100.00
2023-05-16T03:16:03.046Z,100.00
2023-05-16T03:18:29.567Z,100.00
2023-05-16T03:20:56.286Z,100.00
2023-05-16T03:23:22.985Z,100.00
2023-05-16T03:25:49.626Z,100.00
2023-05-16T03:28:17.861Z,100.00
2023-05-16T03:30:44.303Z,100.00
2023-05-16T03:33:10.894Z,100.00
2023-05-16T03:35:38.105Z,100.00
2023-05-16T03:38:04.677Z,100.00
2023-05-16T03:40:31.396Z,100.00
2023-05-16T03:42:57.970Z,100.00
2023-05-16T03:45:24.601Z,100.00
2023-05-16T03:47:51.260Z,100.00
2023-05-16T03:50:18.159Z,100.00
2023-05-16T03:52:44.732Z,100.00
2023-05-16T03:55:14.195Z,100.00
2023-05-16T03:57:42.229Z,100.00
2023-05-16T04:00:11.078Z,100.00
2023-05-16T04:02:37.773Z,100.00
2023-05-16T04:05:04.714Z,100.00
2023-05-16T04:07:31.185Z,100.00
2023-05-16T04:09:58.722Z,100.00
2023-05-16T04:12:25.268Z,100.00
2023-05-16T04:14:51.761Z,100.00
2023-05-16T04:17:18.226Z,100.00
2023-05-16T04:19:45.290Z,100.00
2023-05-16T04:22:11.780Z,100.00
2023-05-16T04:24:38.351Z,100.00
2023-05-16T04:27:05.313Z,100.00
2023-05-16T04:29:32.365Z,100.00
2023-05-16T04:31:58.821Z,100.00
2023-05-16T04:34:27.888Z,100.00
2023-05-16T04:36:55.488Z,100.00
2023-05-16T04:39:22.339Z,100.00
2023-05-16T04:41:48.796Z,100.00
2023-05-16T04:44:15.355Z,100.00
2023-05-16T04:46:41.902Z,100.00
2023-05-16T04:49:08.532Z,100.00
2023-05-16T04:51:34.986Z,100.00
2023-05-16T04:54:01.430Z,100.00
2023-05-16T04:56:27.920Z,100.00
2023-05-16T04:58:54.761Z,100.00
2023-05-16T05:01:21.428Z,100.00
2023-05-16T05:03:48.501Z,100.00
2023-05-16T05:06:15.220Z,100.00
2023-05-16T05:08:41.711Z,100.00
2023-05-16T05:11:08.213Z,100.00
2023-05-16T05:13:34.644Z,100.00
2023-05-16T05:16:02.106Z,100.00
2023-05-16T05:18:28.763Z,100.00
2023-05-16T05:20:55.315Z,100.00
2023-05-16T05:23:21.935Z,100.00
2023-05-16T05:25:48.529Z,100.00
2023-05-16T05:28:15.017Z,100.00
2023-05-16T05:30:43.252Z,100.00
2023-05-16T05:33:11.791Z,100.00
2023-05-16T05:35:38.444Z,100.00
2023-05-16T05:38:04.874Z,100.00
2023-05-16T05:40:31.351Z,100.00
2023-05-16T05:42:57.858Z,100.00
2023-05-16T05:45:24.324Z,100.00
2023-05-16T05:47:51.080Z,100.00
2023-05-16T05:50:17.691Z,100.00
2023-05-16T05:52:44.286Z,100.00
2023-05-16T05:55:10.923Z,100.00
2023-05-16T05:57:37.777Z,100.00
2023-05-16T06:00:05.195Z,100.00
2023-05-16T06:02:31.887Z,100.00
2023-05-16T06:04:58.487Z,100.00
2023-05-16T06:07:25.065Z,100.00
2023-05-16T06:09:52.079Z,100.00
2023-05-16T06:12:18.592Z,100.00
2023-05-16T06:14:45.066Z,100.00
2023-05-16T06:17:11.554Z,100.00
2023-05-16T06:19:38.149Z,100.00
2023-05-16T06:22:04.792Z,100.00
2023-05-16T06:24:31.530Z,100.00
2023-05-16T06:26:58.129Z,100.00
2023-05-16T06:29:24.600Z,100.00
2023-05-16T06:31:51.202Z,100.00
2023-05-16T06:34:17.671Z,100.00
2023-05-16T06:36:44.720Z,100.00
2023-05-16T06:39:11.191Z,100.00
2023-05-16T06:41:37.659Z,100.00
2023-05-16T06:44:05.061Z,100.00
2023-05-16T06:46:31.689Z,100.00
2023-05-16T06:48:58.214Z,100.00
2023-05-16T06:51:24.891Z,100.00
2023-05-16T06:53:51.417Z,100.00
2023-05-16T06:56:17.981Z,100.00
2023-05-16T06:58:44.562Z,100.00
2023-05-16T07:01:11.148Z,100.00
2023-05-16T07:03:37.806Z,100.00
2023-05-16T07:06:04.434Z,100.00
2023-05-16T07:08:30.970Z,100.00
2023-05-16T07:10:57.511Z,100.00
2023-05-16T07:13:24.017Z,100.00
2023-05-16T07:15:50.586Z,100.00
2023-05-16T07:18:17.117Z,100.00
2023-05-16T07:20:43.592Z,100.00
2023-05-16T07:23:10.255Z,100.00
2023-05-16T07:25:36.870Z,100.00
2023-05-16T07:28:03.689Z,100.00
2023-05-16T07:30:30.591Z,100.00
2023-05-16T07:32:57.581Z,100.00
2023-05-16T07:35:24.137Z,100.00
2023-05-16T07:37:50.645Z,100.00
2023-05-16T07:40:18.562Z,100.00
2023-05-16T07:42:46.066Z,100.00
2023-05-16T07:45:12.626Z,100.00
2023-05-16T07:47:39.192Z,100.00
2023-05-16T07:50:06.027Z,100.00
2023-05-16T07:52:32.509Z,100.00
2023-05-16T07:54:58.976Z,100.00
2023-05-16T07:57:25.728Z,100.00
2023-05-16T07:59:52.507Z,100.00
2023-05-16T08:02:19.425Z,100.00
2023-05-16T08:04:46.966Z,100.00
2023-05-16T08:07:13.626Z,100.00
2023-05-16T08:09:40.243Z,100.00
2023-05-16T08:12:07.199Z,100.00
2023-05-16T08:14:33.910Z,100.00
2023-05-16T08:17:00.897Z,100.00
2023-05-16T08:19:27.905Z,100.00
2023-05-16T08:21:54.988Z,100.00
2023-05-16T08:24:21.766Z,100.00
2023-05-16T08:26:48.322Z,100.00
2023-05-16T08:29:14.953Z,100.00
2023-05-16T08:31:41.584Z,100.00
2023-05-16T08:34:09.410Z,100.00
2023-05-16T08:36:37.643Z,100.00
2023-05-16T08:39:04.955Z,100.00
2023-05-16T08:41:31.670Z,100.00
2023-05-16T08:43:58.325Z,100.00
2023-05-16T08:46:26.548Z,100.00
2023-05-16T08:48:54.311Z,100.00
2023-05-16T08:51:21.510Z,100.00
2023-05-16T08:53:57.730Z,100.00
2023-05-16T08:56:25.173Z,100.00
2023-05-16T08:58:55.178Z,100.00
2023-05-16T09:01:23.047Z,100.00
2023-05-16T09:03:51.072Z,100.00
2023-05-16T09:06:17.903Z,100.00
2023-05-16T09:08:44.641Z,100.00
2023-05-16T09:11:11.297Z,100.00
2023-05-16T09:13:39.624Z,100.00
2023-05-16T09:16:14.785Z,100.00
2023-05-16T09:18:44.873Z,100.00
2023-05-16T09:21:12.298Z,100.00
2023-05-16T09:23:39.264Z,100.00
2023-05-16T09:26:08.041Z,100.00
2023-05-16T09:28:37.935Z,100.00
2023-05-16T09:31:04.584Z,100.00
2023-05-16T09:33:31.225Z,100.00
2023-05-16T09:35:59.821Z,100.00
2023-05-16T09:38:27.698Z,100.00
2023-05-16T09:40:55.508Z,100.00
2023-05-16T09:43:25.331Z,100.00
2023-05-16T09:45:52.463Z,100.00
2023-05-16T09:48:19.361Z,100.00
2023-05-16T09:50:52.911Z,100.00
2023-05-16T09:53:30.758Z,100.00
2023-05-16T09:56:08.431Z,99.90
2023-05-16T09:58:39.428Z,98.59
2023-05-16T10:01:07.285Z,100.00
2023-05-16T10:03:42.259Z,100.00
2023-05-16T10:06:09.352Z,100.00
2023-05-16T10:08:37.032Z,95.98
2023-05-16T10:11:05.826Z,99.33
2023-05-16T10:13:36.901Z,100.00
2023-05-16T10:16:10.141Z,100.00
2023-05-16T10:18:38.566Z,98.20
2023-05-16T10:21:10.419Z,95.85
2023-05-16T10:23:41.340Z,99.77
2023-05-16T10:26:09.309Z,97.87
2023-05-16T10:28:36.829Z,97.97
2023-05-16T10:31:04.713Z,100.00
2023-05-16T10:33:31.427Z,100.00
2023-05-16T10:35:58.874Z,100.00
2023-05-16T10:38:28.386Z,100.00
2023-05-16T10:40:55.753Z,100.00
2023-05-16T10:43:26.864Z,100.00
2023-05-16T10:46:03.896Z,99.13
2023-05-16T10:48:38.927Z,99.99
2023-05-16T10:51:23.751Z,100.00
2023-05-16T10:53:54.741Z,99.98
2023-05-16T10:56:26.505Z,100.00
2023-05-16T10:58:55.252Z,100.00
2023-05-16T11:01:29.505Z,100.00
2023-05-16T11:03:59.238Z,99.99
2023-05-16T11:06:29.952Z,100.00
2023-05-16T11:09:05.639Z,100.00
2023-05-16T11:11:49.100Z,100.00
2023-05-16T11:14:49.950Z,100.00
2023-05-16T11:17:21.673Z,99.07
2023-05-16T11:19:59.044Z,98.59
2023-05-16T11:22:29.645Z,99.25
2023-05-16T11:25:01.904Z,100.00
2023-05-16T11:27:37.311Z,100.00
2023-05-16T11:30:06.654Z,100.00
2023-05-16T11:32:38.183Z,100.00
2023-05-16T11:35:08.990Z,100.00
2023-05-16T11:37:45.059Z,100.00
2023-05-16T11:40:13.611Z,100.00
2023-05-16T11:42:42.534Z,100.00
2023-05-16T11:45:16.651Z,100.00
2023-05-16T11:47:45.677Z,100.00
2023-05-16T11:50:25.216Z,98.72
2023-05-16T11:52:54.336Z,98.93
2023-05-16T11:55:39.578Z,94.63
2023-05-16T11:58:08.439Z,79.59
2023-05-16T12:00:34.993Z,76.39
2023-05-16T12:03:05.022Z,81.31
2023-05-16T12:05:34.097Z,87.90
2023-05-16T12:08:02.655Z,83.76
2023-05-16T12:10:31.754Z,76.10
2023-05-16T12:12:58.638Z,80.33
2023-05-16T12:15:25.722Z,76.10
2023-05-16T12:17:53.030Z,81.33
2023-05-16T12:20:19.800Z,81.41
2023-05-16T12:22:47.130Z,80.71
2023-05-16T12:25:27.307Z,85.71
2023-05-16T12:27:59.816Z,75.32
2023-05-16T12:30:28.392Z,76.54
2023-05-16T12:32:58.732Z,70.63
2023-05-16T12:35:26.321Z,59.44
2023-05-16T12:37:53.350Z,55.97
2023-05-16T12:40:20.767Z,58.89
2023-05-16T12:43:12.769Z,57.55
2023-05-16T12:45:39.286Z,58.75
2023-05-16T12:48:08.719Z,56.19
2023-05-16T12:50:35.250Z,58.30
2023-05-16T12:53:01.800Z,60.63
2023-05-16T12:55:28.349Z,58.72
2023-05-16T12:57:57.628Z,58.15
2023-05-16T13:00:24.627Z,54.77
2023-05-16T13:02:52.372Z,56.88
2023-05-16T13:05:20.524Z,56.60
2023-05-16T13:07:47.165Z,47.06
2023-05-16T13:10:13.877Z,39.14
2023-05-16T13:12:41.285Z,41.95
2023-05-16T13:15:09.874Z,45.56
2023-05-16T13:17:37.408Z,49.47
2023-05-16T13:20:15.144Z,50.26
2023-05-16T13:22:43.734Z,52.66
2023-05-16T13:25:11.109Z,53.53
2023-05-16T13:27:37.941Z,58.55
2023-05-16T13:30:05.012Z,55.35
2023-05-16T13:32:31.616Z,54.74
2023-05-16T13:34:58.280Z,57.67
2023-05-16T13:37:24.813Z,54.40
2023-05-16T13:39:51.436Z,52.80
2023-05-16T13:42:18.070Z,46.90
2023-05-16T13:44:44.940Z,48.74
2023-05-16T13:47:11.813Z,48.43
2023-05-16T13:49:38.980Z,49.69
2023-05-16T13:52:06.557Z,55.55
2023-05-16T13:54:33.644Z,54.11
2023-05-16T13:57:00.795Z,49.59
2023-05-16T13:59:44.699Z,49.55
2023-05-16T14:02:12.525Z,51.58
2023-05-16T14:04:39.333Z,54.14
2023-05-16T14:07:05.854Z,54.42
2023-05-16T14:09:35.155Z,57.74
2023-05-16T14:12:04.300Z,57.25
2023-05-16T14:14:30.854Z,56.86
2023-05-16T14:16:58.517Z,57.01
2023-05-16T14:19:25.386Z,57.73
2023-05-16T14:21:52.138Z,58.56
2023-05-16T14:24:18.802Z,61.35
2023-05-16T14:26:45.406Z,58.68
2023-05-16T14:29:12.938Z,60.91
2023-05-16T14:31:41.077Z,60.52
2023-05-16T14:34:07.602Z,62.31
2023-05-16T14:36:34.151Z,69.74
2023-05-16T14:39:00.732Z,67.91
2023-05-16T14:41:27.345Z,67.31
2023-05-16T14:43:55.386Z,70.37
2023-05-16T14:46:21.958Z,67.86
2023-05-16T14:48:48.579Z,68.44
2023-05-16T14:51:15.396Z,69.24
2023-05-16T14:53:41.967Z,76.90
2023-05-16T14:56:08.514Z,85.62
2023-05-16T14:58:35.083Z,86.07
2023-05-16T15:01:01.882Z,87.82
2023-05-16T15:03:28.496Z,88.96
2023-05-16T15:05:55.097Z,94.31
2023-05-16T15:08:22.302Z,95.63
2023-05-16T15:10:48.830Z,98.07
2023-05-16T15:13:15.338Z,98.77
2023-05-16T15:15:42.210Z,97.05
2023-05-16T15:18:10.605Z,98.30
2023-05-16T15:20:37.700Z,96.93
2023-05-16T15:23:04.262Z,97.67
2023-05-16T15:25:31.085Z,98.36
2023-05-16T15:27:57.759Z,100.00
2023-05-16T15:30:24.371Z,100.00
2023-05-16T15:32:51.186Z,98.38
2023-05-16T15:35:18.085Z,96.34
2023-05-16T15:37:44.580Z,97.42
2023-05-16T15:40:11.703Z,97.20
2023-05-16T15:42:38.229Z,96.25
2023-05-16T15:45:05.145Z,93.32
2023-05-16T15:47:32.085Z,94.70
2023-05-16T15:49:58.670Z,89.38
2023-05-16T15:52:25.232Z,91.55
2023-05-16T15:54:51.764Z,90.54
2023-05-16T15:57:19.129Z,92.12
2023-05-16T15:59:50.337Z,89.84
2023-05-16T16:02:16.986Z,92.80
2023-05-16T16:04:43.569Z,89.82
2023-05-16T16:07:10.838Z,89.02
2023-05-16T16:09:37.344Z,88.23
2023-05-16T16:12:04.038Z,88.42
2023-05-16T16:14:30.606Z,90.53
2023-05-16T16:16:57.261Z,91.60
2023-05-16T16:19:24.014Z,92.55
2023-05-16T16:21:50.604Z,94.89
2023-05-16T16:24:17.318Z,96.38
2023-05-16T16:26:44.824Z,95.53
2023-05-16T16:29:11.310Z,97.51
2023-05-16T16:31:38.016Z,97.85
2023-05-16T16:34:04.752Z,97.89
2023-05-16T16:36:32.322Z,99.13
2023-05-16T16:38:59.523Z,100.00
2023-05-16T16:41:26.072Z,100.00
2023-05-16T16:43:52.929Z,100.00
2023-05-16T16:46:19.522Z,100.00
2023-05-16T16:48:46.270Z,100.00
2023-05-16T16:51:12.992Z,100.00
2023-05-16T16:53:40.928Z,100.00
2023-05-16T16:56:07.545Z,100.00
2023-05-16T16:58:34.080Z,100.00
2023-05-16T17:01:00.642Z,100.00
2023-05-16T17:03:27.362Z,100.00
2023-05-16T17:05:53.899Z,100.00
2023-05-16T17:08:20.506Z,100.00
2023-05-16T17:10:47.368Z,100.00
2023-05-16T17:13:14.813Z,100.00
2023-05-16T17:15:41.478Z,100.00
2023-05-16T17:18:08.289Z,100.00
2023-05-16T17:20:35.982Z,100.00
2023-05-16T17:23:03.108Z,100.00
2023-05-16T17:25:29.958Z,100.00
2023-05-16T17:27:56.933Z,100.00
2023-05-16T17:30:23.506Z,100.00
2023-05-16T17:32:50.100Z,100.00
2023-05-16T17:35:16.779Z,100.00
2023-05-16T17:37:43.346Z,100.00
2023-05-16T17:40:12.821Z,100.00
2023-05-16T17:42:39.580Z,100.00
2023-05-16T17:45:14.096Z,100.00
2023-05-16T17:47:41.074Z,100.00
2023-05-16T17:50:09.952Z,100.00
2023-05-16T17:52:37.934Z,100.00
2023-05-16T17:55:06.224Z,100.00
2023-05-16T17:57:34.339Z,100.00
2023-05-16T18:00:01.647Z,100.00
2023-05-16T18:02:28.386Z,100.00
2023-05-16T18:04:55.851Z,100.00
2023-05-16T18:07:22.735Z,100.00
2023-05-16T18:09:49.342Z,100.00
2023-05-16T18:12:15.911Z,100.00
2023-05-16T18:14:45.127Z,100.00
2023-05-16T18:17:13.390Z,100.00
2023-05-16T18:19:40.149Z,100.00
2023-05-16T18:22:08.612Z,100.00
2023-05-16T18:24:35.234Z,100.00
2023-05-16T18:27:02.960Z,100.00
2023-05-16T18:29:30.148Z,100.00
2023-05-16T18:31:57.133Z,100.00
2023-05-16T18:34:23.857Z,100.00
2023-05-16T18:36:50.532Z,100.00
2023-05-16T18:39:18.814Z,100.00
2023-05-16T18:41:46.714Z,100.00
2023-05-16T18:44:13.324Z,100.00
2023-05-16T18:46:46.799Z,100.00
2023-05-16T18:49:14.153Z,100.00
2023-05-16T18:51:41.107Z,100.00
2023-05-16T18:54:07.685Z,100.00
2023-05-16T18:56:34.416Z,100.00
2023-05-16T18:59:01.013Z,100.00
2023-05-16T19:01:30.460Z,100.00
2023-05-16T19:03:57.155Z,100.00
2023-05-16T19:06:23.937Z,100.00
2023-05-16T19:08:50.455Z,100.00
2023-05-16T19:11:17.932Z,100.00
2023-05-16T19:13:45.630Z,100.00
2023-05-16T19:16:12.327Z,100.00
2023-05-16T19:18:39.071Z,100.00
2023-05-16T19:21:07.757Z,100.00
2023-05-16T19:23:34.373Z,100.00
2023-05-16T19:26:04.674Z,100.00
2023-05-16T19:28:31.299Z,100.00
2023-05-16T19:30:58.193Z,100.00
2023-05-16T19:33:24.825Z,100.00
2023-05-16T19:35:52.863Z,100.00
2023-05-16T19:38:22.896Z,100.00
2023-05-16T19:40:49.429Z,100.00
2023-05-16T19:43:15.967Z,100.00
2023-05-16T19:45:42.970Z,100.00
2023-05-16T19:48:09.641Z,100.00
2023-05-16T19:50:36.655Z,100.00
2023-05-16T19:53:04.260Z,100.00
2023-05-16T19:55:31.453Z,100.00
2023-05-16T19:57:58.304Z,100.00
2023-05-16T20:00:24.965Z,100.00
2023-05-16T20:02:53.124Z,100.00
2023-05-16T20:05:22.892Z,100.00
2023-05-16T20:07:50.010Z,100.00
2023-05-16T20:10:17.346Z,100.00
2023-05-16T20:12:44.766Z,100.00
2023-05-16T20:15:12.033Z,100.00
2023-05-16T20:17:39.429Z,100.00
2023-05-16T20:20:10.761Z,100.00
2023-05-16T20:22:41.537Z,100.00
2023-05-16T20:25:09.892Z,100.00
2023-05-16T20:27:36.806Z,100.00
2023-05-16T20:30:04.952Z,100.00
2023-05-16T20:32:31.541Z,100.00
2023-05-16T20:34:58.174Z,100.00
2023-05-16T20:37:26.623Z,100.00
2023-05-16T20:39:54.250Z,100.00
2023-05-16T20:42:22.905Z,100.00
2023-05-16T20:44:50.537Z,100.00
2023-05-16T20:47:17.675Z,100.00
2023-05-16T20:49:48.562Z,100.00
2023-05-16T20:52:15.077Z,100.00
2023-05-16T20:54:41.907Z,100.00
2023-05-16T20:57:08.485Z,100.00
2023-05-16T20:59:35.052Z,100.00
2023-05-16T21:02:01.566Z,100.00
2023-05-16T21:04:28.215Z,100.00
2023-05-16T21:06:54.840Z,100.00
2023-05-16T21:09:21.346Z,100.00
2023-05-16T21:11:47.965Z,100.00
2023-05-16T21:14:14.527Z,100.00
2023-05-16T21:16:41.061Z,100.00
2023-05-16T21:19:07.863Z,100.00
2023-05-16T21:21:34.483Z,100.00
2023-05-16T21:24:01.533Z,100.00
2023-05-16T21:26:33.859Z,100.00
2023-05-16T21:29:00.451Z,100.00
2023-05-16T21:31:27.091Z,100.00
2023-05-16T21:33:53.705Z,100.00
2023-05-16T21:36:28.904Z,100.00
2023-05-16T21:38:55.416Z,100.00
2023-05-16T21:41:22.347Z,100.00
2023-05-16T21:43:51.061Z,100.00
2023-05-16T21:46:17.563Z,100.00
2023-05-16T21:48:44.327Z,100.00
2023-05-16T21:51:11.044Z,100.00
2023-05-16T21:53:38.333Z,100.00
2023-05-16T21:56:06.136Z,100.00
2023-05-16T21:58:32.685Z,100.00
2023-05-16T22:00:59.183Z,100.00
2023-05-16T22:03:25.901Z,100.00
2023-05-16T22:05:58.266Z,100.00
2023-05-16T22:08:33.684Z,100.00
2023-05-16T22:11:00.788Z,100.00
2023-05-16T22:13:27.282Z,100.00
2023-05-16T22:16:03.975Z,100.00
2023-05-16T22:18:31.922Z,100.00
2023-05-16T22:20:58.951Z,100.00
2023-05-16T22:23:25.650Z,100.00
2023-05-16T22:25:52.105Z,100.00
2023-05-16T22:28:18.569Z,100.00
2023-05-16T22:30:45.042Z,100.00
2023-05-16T22:33:11.630Z,100.00
2023-05-16T22:35:38.233Z,100.00
2023-05-16T22:38:05.106Z,100.00
2023-05-16T22:40:31.659Z,100.00
2023-05-16T22:42:58.144Z,100.00
2023-05-16T22:45:24.613Z,100.00
2023-05-16T22:47:51.327Z,100.00
2023-05-16T22:50:17.861Z,100.00
2023-05-16T22:52:44.381Z,100.00
2023-05-16T22:55:11.180Z,100.00
2023-05-16T22:57:37.643Z,100.00
2023-05-16T23:00:04.708Z,100.00
2023-05-16T23:02:31.763Z,100.00
2023-05-16T23:04:58.480Z,100.00
2023-05-16T23:07:25.340Z,100.00
2023-05-16T23:09:51.869Z,100.00
2023-05-16T23:12:21.017Z,100.00
2023-05-16T23:14:47.782Z,100.00
2023-05-16T23:17:14.885Z,100.00
2023-05-16T23:19:44.483Z,100.00
2023-05-16T23:22:35.597Z,100.00
2023-05-16T23:25:02.164Z,100.00
2023-05-16T23:27:28.702Z,100.00
2023-05-16T23:29:55.283Z,100.00
2023-05-16T23:32:21.966Z,100.00
2023-05-16T23:34:48.540Z,100.00
2023-05-16T23:37:15.721Z,100.00
2023-05-16T23:39:42.625Z,100.00
2023-05-16T23:42:09.152Z,100.00
2023-05-16T23:44:35.723Z,100.00
2023-05-16T23:47:02.854Z,100.00
2023-05-16T23:49:29.373Z,100.00
2023-05-16T23:51:58.185Z,100.00
2023-05-16T23:54:27.814Z,100.00
2023-05-16T23:56:54.306Z,100.00
2023-05-16T23:59:20.818Z,100.00
